Time;durP1;ratioP1;P1;durP2;ratioP2;P2;SDS_P1;SDS_P2;PMS_P1;PMS_P2;Temp;Humidity;BMP_temperature;BMP_pressure;BME280_temperature;BME280_humidity;BME280_pressure;Samples;Min_cycle;Max_cycle;Signal;HPM_P1;HPM_P2
2022/07/09 00:00:09;;;;;;;4.00;2.33;;;;;;;16.85;75.66;99901.22;5038335;28;20035;-81
2022/07/09 00:02:36;;;;;;;4.90;2.72;;;;;;;17.28;72.17;99900.00;5024662;28;20076;-82
2022/07/09 00:05:01;;;;;;;4.30;2.45;;;;;;;17.25;72.59;99889.75;5023930;28;20076;-82
2022/07/09 00:07:26;;;;;;;5.25;2.85;;;;;;;17.36;71.56;99888.69;5010275;28;20074;-82
2022/07/09 00:09:52;;;;;;;4.53;2.53;;;;;;;17.29;71.96;99893.53;5010634;28;20111;-82
2022/07/09 00:12:18;;;;;;;3.00;2.15;;;;;;;17.33;71.68;99891.91;5024084;28;20041;-81
2022/07/09 00:14:44;;;;;;;4.22;2.47;;;;;;;17.51;70.51;99890.63;5027502;28;20037;-81
2022/07/09 00:17:09;;;;;;;6.80;2.85;;;;;;;17.52;70.09;99906.53;5006415;28;20037;-82
2022/07/09 00:19:34;;;;;;;2.67;2.10;;;;;;;17.56;70.33;99910.31;5023919;28;20029;-81
2022/07/09 00:22:00;;;;;;;5.05;2.60;;;;;;;17.24;71.48;99886.22;5022728;28;20049;-81
2022/07/09 00:24:25;;;;;;;3.40;2.55;;;;;;;17.39;70.40;99896.22;5027114;28;20083;-81
2022/07/09 00:26:51;;;;;;;2.75;2.15;;;;;;;17.35;70.87;99897.03;5010238;28;20041;-82
2022/07/09 00:29:16;;;;;;;3.67;2.42;;;;;;;17.27;70.75;99901.09;5011338;28;20041;-81
2022/07/09 00:31:41;;;;;;;4.20;2.85;;;;;;;17.33;73.52;99913.50;5024258;28;20072;-81
2022/07/09 00:34:07;;;;;;;4.53;2.88;;;;;;;17.15;70.87;99901.31;5004649;28;20033;-81
2022/07/09 00:36:32;;;;;;;5.30;3.20;;;;;;;16.94;75.28;99909.59;4993535;28;20040;-81
2022/07/09 00:38:58;;;;;;;6.40;3.17;;;;;;;16.91;71.80;99893.94;5006696;28;20124;-81
2022/07/09 00:41:23;;;;;;;5.68;2.53;;;;;;;16.97;72.42;99906.38;5011638;28;20077;-81
2022/07/09 00:43:50;;;;;;;5.10;2.70;;;;;;;16.88;71.88;99889.09;5024607;28;20049;-81
2022/07/09 00:46:16;;;;;;;6.18;3.20;;;;;;;16.87;72.85;99887.44;5011052;28;20037;-81
2022/07/09 00:48:42;;;;;;;5.10;2.25;;;;;;;16.99;71.79;99896.13;5019660;28;20052;-81
2022/07/09 00:51:08;;;;;;;8.70;3.90;;;;;;;16.62;77.05;99892.75;5009029;28;20418;-80
2022/07/09 00:53:34;;;;;;;3.28;2.70;;;;;;;16.59;73.69;99893.25;5025659;28;20033;-81
2022/07/09 00:56:00;;;;;;;3.08;2.72;;;;;;;16.78;72.25;99879.06;5029175;28;20036;-81
2022/07/09 00:58:27;;;;;;;3.65;3.00;;;;;;;16.86;72.18;99896.63;5023513;28;20496;-81
2022/07/09 01:00:53;;;;;;;5.20;2.92;;;;;;;16.85;72.32;99889.59;5009445;28;20095;-81
2022/07/09 01:03:19;;;;;;;6.00;2.35;;;;;;;16.94;71.39;99879.94;5004327;28;20064;-81
2022/07/09 01:05:44;;;;;;;4.93;2.67;;;;;;;16.72;72.81;99873.91;5005144;28;20054;-81
2022/07/09 01:08:10;;;;;;;4.40;3.25;;;;;;;16.57;74.73;99880.03;4999036;28;20041;-81
2022/07/09 01:10:36;;;;;;;6.65;2.67;;;;;;;16.78;72.77;99884.44;5023111;28;20964;-81
2022/07/09 01:13:03;;;;;;;3.33;2.47;;;;;;;16.86;71.96;99873.16;5022589;28;20044;-81
2022/07/09 01:15:29;;;;;;;4.60;3.42;;;;;;;16.91;71.69;99886.66;5023007;28;20029;-81
2022/07/09 01:17:57;;;;;;;2.78;2.50;;;;;;;16.91;71.56;99875.06;5009247;28;20091;-81
2022/07/09 01:20:23;;;;;;;5.93;2.67;;;;;;;16.82;72.13;99882.84;5007698;28;20037;-82
2022/07/09 01:22:49;;;;;;;5.90;3.55;;;;;;;16.50;75.85;99879.47;5023850;28;20370;-81
2022/07/09 01:25:16;;;;;;;5.78;3.28;;;;;;;16.48;73.46;99860.84;5020664;28;20029;-81
2022/07/09 01:27:42;;;;;;;4.63;3.10;;;;;;;16.76;72.47;99867.72;5024831;28;20485;-81
2022/07/09 01:30:08;;;;;;;3.65;2.80;;;;;;;16.78;72.24;99862.06;5029653;28;20037;-81
2022/07/09 01:32:33;;;;;;;3.33;2.75;;;;;;;16.49;72.82;99851.66;5006454;28;20091;-81
2022/07/09 01:34:58;;;;;;;3.67;2.85;;;;;;;16.76;72.62;99866.91;5026598;28;20060;-81
2022/07/09 01:37:24;;;;;;;7.38;3.15;;;;;;;16.82;72.38;99861.28;5006486;28;20525;-81
2022/07/09 01:39:52;;;;;;;5.85;3.25;;;;;;;16.79;72.34;99850.22;5026447;28;20033;-81
2022/07/09 01:42:19;;;;;;;4.32;3.30;;;;;;;16.73;72.60;99848.59;5006678;28;20392;-81
2022/07/09 01:44:45;;;;;;;3.65;2.78;;;;;;;16.52;72.89;99844.97;4986320;28;20092;-81
2022/07/09 01:47:11;;;;;;;4.53;3.08;;;;;;;16.59;72.98;99850.94;5008192;28;20057;-80
2022/07/09 01:49:38;;;;;;;3.90;2.83;;;;;;;16.63;73.03;99851.22;5024234;28;20049;-81
2022/07/09 01:52:04;;;;;;;6.15;3.40;;;;;;;16.48;73.30;99831.19;5006502;28;20029;-81
2022/07/09 01:54:29;;;;;;;4.07;3.60;;;;;;;16.35;73.15;99828.16;5022778;28;20036;-81
2022/07/09 01:56:55;;;;;;;5.57;3.50;;;;;;;16.35;75.48;99839.75;5024072;28;20033;-81
2022/07/09 01:59:20;;;;;;;5.43;4.60;;;;;;;15.91;79.11;99845.66;5024877;28;20032;-81
2022/07/09 02:01:46;;;;;;;7.22;4.88;;;;;;;15.53;81.40;99842.13;5029809;28;20033;-81
2022/07/09 02:04:11;;;;;;;5.97;5.38;;;;;;;15.09;82.36;99810.22;5027198;28;20034;-80
2022/07/09 02:06:37;;;;;;;4.78;2.95;;;;;;;15.29;80.85;99818.50;5028515;28;20045;-80
2022/07/09 02:09:03;;;;;;;6.35;3.80;;;;;;;15.84;76.07;99818.94;4995382;28;20072;-80
2022/07/09 02:11:28;;;;;;;4.65;3.00;;;;;;;16.21;74.51;99835.06;5023006;28;20053;-80
2022/07/09 02:13:53;;;;;;;5.72;3.10;;;;;;;16.25;73.47;99814.66;5030932;28;20037;-80
2022/07/09 02:16:19;;;;;;;5.97;3.03;;;;;;;16.35;73.23;99826.28;5010472;28;20037;-80
2022/07/09 02:18:44;;;;;;;3.33;3.00;;;;;;;16.33;73.30;99814.94;5025383;28;20047;-81
2022/07/09 02:21:09;;;;;;;3.58;3.05;;;;;;;16.41;73.51;99816.31;4996225;28;20116;-81
2022/07/09 02:23:35;;;;;;;5.78;3.05;;;;;;;16.22;73.31;99810.59;5022897;28;20446;-80
2022/07/09 02:26:00;;;;;;;6.05;3.13;;;;;;;16.11;74.32;99803.50;4993651;28;20087;-80
2022/07/09 02:28:26;;;;;;;4.18;3.13;;;;;;;16.17;74.42;99818.63;5026378;28;20068;-81
2022/07/09 02:30:51;;;;;;;3.80;3.40;;;;;;;16.06;75.75;99808.88;5025997;28;20026;-81
2022/07/09 02:33:17;;;;;;;3.53;2.95;;;;;;;16.18;74.07;99812.19;5024609;28;20457;-81
2022/07/09 02:35:42;;;;;;;4.50;3.20;;;;;;;16.33;73.11;99814.13;5028621;28;20048;-81
2022/07/09 02:38:08;;;;;;;5.32;2.75;;;;;;;16.25;73.22;99791.19;5028588;28;20469;-81
2022/07/09 02:40:33;;;;;;;5.00;3.30;;;;;;;16.38;73.31;99816.88;5027852;28;20113;-80
2022/07/09 02:42:59;;;;;;;4.70;3.30;;;;;;;16.26;73.23;99806.28;5014469;28;20029;-80
2022/07/09 02:45:24;;;;;;;5.50;2.90;;;;;;;16.37;73.31;99809.84;5026970;28;20044;-81
2022/07/09 02:47:50;;;;;;;6.35;3.72;;;;;;;16.17;73.14;99790.88;5024858;28;20059;-80
2022/07/09 02:50:15;;;;;;;7.72;4.20;;;;;;;16.18;74.42;99797.91;5020518;28;20041;-81
2022/07/09 02:52:40;;;;;;;3.30;3.00;;;;;;;16.29;73.54;99815.75;5022975;28;20037;-80
2022/07/09 02:55:06;;;;;;;4.05;3.20;;;;;;;16.29;73.21;99796.88;5026815;28;20030;-81
2022/07/09 02:57:31;;;;;;;5.30;3.25;;;;;;;16.14;75.39;99799.50;5024709;28;20116;-80
2022/07/09 02:59:57;;;;;;;6.13;3.40;;;;;;;16.26;74.31;99810.84;5008911;28;20412;-81
2022/07/09 03:02:22;;;;;;;4.10;3.33;;;;;;;16.37;73.94;99807.16;5010974;28;20037;-80
2022/07/09 03:04:48;;;;;;;6.13;3.85;;;;;;;16.14;74.35;99792.19;5023677;28;20059;-80
2022/07/09 03:07:14;;;;;;;5.00;2.97;;;;;;;16.18;73.79;99787.94;5010049;28;20034;-81
2022/07/09 03:09:40;;;;;;;4.30;3.30;;;;;;;16.23;74.29;99798.72;4992954;28;20053;-81
2022/07/09 03:12:06;;;;;;;5.43;3.85;;;;;;;16.18;76.11;99816.75;5042850;28;20116;-81
2022/07/09 03:14:31;;;;;;;7.18;3.60;;;;;;;16.43;73.80;99812.28;5016838;28;20099;-81
2022/07/09 03:16:57;;;;;;;7.20;5.18;;;;;;;16.39;74.52;99799.59;5009802;28;20489;-81
2022/07/09 03:19:22;;;;;;;3.60;3.20;;;;;;;16.37;74.19;99794.50;5012382;28;20025;-81
2022/07/09 03:21:48;;;;;;;5.22;3.92;;;;;;;16.22;75.71;99794.41;5011957;28;20142;-81
2022/07/09 03:24:13;;;;;;;4.40;3.05;;;;;;;16.28;74.00;99779.06;5024816;28;20068;-81
2022/07/09 03:26:39;;;;;;;8.98;5.00;;;;;;;16.16;76.94;99791.97;5011313;28;20033;-80
2022/07/09 03:29:04;;;;;;;3.58;3.20;;;;;;;16.37;74.09;99783.72;5025410;28;20043;-81
2022/07/09 03:31:29;;;;;;;4.75;3.25;;;;;;;16.52;73.83;99795.63;5007048;28;20424;-81
2022/07/09 03:33:55;;;;;;;6.47;3.45;;;;;;;16.48;73.93;99792.66;5025412;28;20116;-81
2022/07/09 03:36:20;;;;;;;5.22;3.10;;;;;;;16.59;73.73;99797.03;4995729;28;20037;-81
2022/07/09 03:38:45;;;;;;;3.80;3.50;;;;;;;16.54;73.39;99788.09;5010678;28;20481;-81
2022/07/09 03:41:11;;;;;;;3.88;3.25;;;;;;;16.63;74.02;99800.81;4986922;28;20485;-81
2022/07/09 03:43:36;;;;;;;8.88;5.80;;;;;;;16.39;76.98;99796.91;5012853;28;20029;-81
2022/07/09 03:46:02;;;;;;;3.78;3.45;;;;;;;16.42;74.66;99789.09;5026410;28;20041;-81
2022/07/09 03:48:27;;;;;;;16.40;6.32;;;;;;;16.08;79.45;99787.03;5020019;28;20032;-80
2022/07/09 03:50:52;;;;;;;6.43;4.85;;;;;;;16.22;77.04;99796.28;5023270;28;20473;-81
2022/07/09 03:53:18;;;;;;;5.40;4.65;;;;;;;16.23;77.21;99796.03;5021155;28;20080;-80
2022/07/09 03:55:43;;;;;;;4.75;4.22;;;;;;;16.47;74.81;99793.69;5009349;28;20029;-81
2022/07/09 03:58:09;;;;;;;5.65;4.18;;;;;;;16.29;75.44;99789.59;4991118;28;20478;-81
2022/07/09 04:00:34;;;;;;;5.28;3.50;;;;;;;16.42;74.74;99799.09;5022361;28;20087;-81
2022/07/09 04:02:59;;;;;;;11.45;4.00;;;;;;;16.56;73.92;99799.44;5008202;28;20091;-81
2022/07/09 04:05:25;;;;;;;9.85;4.88;;;;;;;16.40;75.67;99772.38;5023279;28;20052;-81
2022/07/09 04:07:51;;;;;;;6.43;3.78;;;;;;;16.56;74.17;99792.16;5029195;28;20047;-80
2022/07/09 04:10:16;;;;;;;9.40;4.13;;;;;;;16.67;73.90;99776.81;5022792;28;20025;-81
2022/07/09 04:12:41;;;;;;;4.65;4.25;;;;;;;16.70;74.96;99797.88;5009852;28;20112;-81
2022/07/09 04:15:07;;;;;;;11.70;7.00;;;;;;;16.67;76.19;99801.91;5025979;28;20121;-81
2022/07/09 04:17:34;;;;;;;3.92;3.50;;;;;;;16.68;74.60;99798.16;5014691;28;20041;-81
2022/07/09 04:19:59;;;;;;;8.38;4.65;;;;;;;16.68;76.36;99806.22;5008825;28;20033;-80
2022/07/09 04:22:25;;;;;;;6.40;4.00;;;;;;;16.81;74.56;99792.25;5001971;28;20054;-81
2022/07/09 04:24:51;;;;;;;4.85;3.60;;;;;;;16.84;74.19;99797.09;5005631;28;20037;-81
2022/07/09 04:27:16;;;;;;;8.13;4.40;;;;;;;16.96;73.97;99803.06;5022649;28;20029;-80
2022/07/09 04:29:42;;;;;;;4.40;3.85;;;;;;;16.89;74.84;99791.72;5019440;28;20045;-80
2022/07/09 04:32:07;;;;;;;7.28;5.90;;;;;;;16.77;76.37;99791.16;5021860;28;20032;-80
2022/07/09 04:34:33;;;;;;;7.85;3.95;;;;;;;16.80;74.35;99763.66;5023238;28;20381;-80
2022/07/09 04:36:58;;;;;;;4.93;4.10;;;;;;;17.08;73.79;99798.22;5023632;28;20029;-80
2022/07/09 04:39:24;;;;;;;5.03;4.63;;;;;;;16.96;74.56;99781.50;5010263;28;20037;-81
2022/07/09 04:41:53;;;;;;;11.00;5.10;;;;;;;17.02;74.72;99785.00;5019429;28;20032;-80
2022/07/09 04:44:18;;;;;;;8.65;4.82;;;;;;;17.14;74.48;99788.28;4991672;28;20037;-81
2022/07/09 04:46:44;;;;;;;5.78;4.97;;;;;;;17.11;74.56;99783.41;5005909;28;20033;-81
2022/07/09 04:49:10;;;;;;;7.60;4.85;;;;;;;17.05;74.54;99781.78;5024315;28;20501;-81
2022/07/09 04:51:35;;;;;;;6.35;5.10;;;;;;;17.05;74.81;99797.97;5023342;28;20030;-81
2022/07/09 04:54:01;;;;;;;9.57;5.07;;;;;;;17.14;74.71;99790.97;5007578;28;20087;-81
2022/07/09 04:56:26;;;;;;;8.98;5.50;;;;;;;17.20;74.34;99795.28;5005448;28;20048;-80
2022/07/09 04:58:51;;;;;;;9.13;5.60;;;;;;;17.08;75.09;99798.22;5023002;28;20033;-81
2022/07/09 05:01:21;;;;;;;9.18;5.30;;;;;;;17.21;74.78;99805.00;5022471;28;20037;-80
2022/07/09 05:03:47;;;;;;;10.88;5.60;;;;;;;16.96;75.01;99776.09;5005420;28;20045;-80
2022/07/09 05:06:17;;;;;;;6.15;5.25;;;;;;;17.27;74.98;99797.72;5006019;28;20029;-81
2022/07/09 05:08:43;;;;;;;5.95;5.30;;;;;;;17.24;74.73;99789.09;5016452;28;20080;-80
2022/07/09 05:11:10;;;;;;;8.20;5.40;;;;;;;17.13;75.90;99792.03;5004918;28;20538;-80
2022/07/09 05:13:36;;;;;;;11.45;6.43;;;;;;;17.13;75.41;99783.94;5018379;28;20405;-80
2022/07/09 05:16:02;;;;;;;6.20;5.47;;;;;;;17.05;75.58;99773.69;5004306;28;20041;-80
2022/07/09 05:18:29;;;;;;;8.75;6.07;;;;;;;17.19;75.44;99774.75;5012172;28;20033;-81
2022/07/09 05:20:54;;;;;;;11.93;7.20;;;;;;;17.09;76.06;99764.78;5009531;28;20045;-80
2022/07/09 05:23:20;;;;;;;11.13;6.55;;;;;;;17.11;75.88;99765.34;5024286;28;20540;-80
2022/07/09 05:25:45;;;;;;;7.85;6.75;;;;;;;17.28;75.73;99792.03;5008548;28;20132;-80
2022/07/09 05:28:11;;;;;;;8.40;7.60;;;;;;;17.02;78.79;99798.47;5021947;28;20172;-80
2022/07/09 05:30:37;;;;;;;9.38;6.38;;;;;;;17.34;76.21;99793.69;5012270;28;20033;-80
2022/07/09 05:33:03;;;;;;;9.32;6.43;;;;;;;17.20;75.63;99781.78;5025562;28;20104;-81
2022/07/09 05:35:29;;;;;;;8.77;6.05;;;;;;;17.49;74.86;99787.47;4997831;28;20025;-81
2022/07/09 05:37:55;;;;;;;7.97;5.50;;;;;;;17.30;76.32;99768.28;5030349;28;20040;-80
2022/07/09 05:40:20;;;;;;;6.85;5.53;;;;;;;17.61;74.10;99769.94;5027967;28;20039;-80
2022/07/09 05:42:46;;;;;;;6.03;5.43;;;;;;;17.56;74.89;99767.25;5025523;28;20032;-81
2022/07/09 05:45:12;;;;;;;10.02;6.45;;;;;;;17.71;73.75;99769.91;5027863;28;20036;-80
2022/07/09 05:47:37;;;;;;;7.07;6.30;;;;;;;17.43;75.91;99769.66;5035231;28;20029;-80
2022/07/09 05:50:03;;;;;;;12.88;9.73;;;;;;;17.25;80.27;99771.00;5027413;28;20030;-81
2022/07/09 05:52:29;;;;;;;20.13;13.85;;;;;;;17.13;81.39;99770.44;5029938;28;20112;-80
2022/07/09 05:54:54;;;;;;;8.93;5.75;;;;;;;17.45;75.84;99778.31;5034346;28;20234;-81
2022/07/09 05:57:20;;;;;;;12.65;9.25;;;;;;;17.59;76.10;99782.09;5029854;28;20033;-81
2022/07/09 05:59:45;;;;;;;9.55;6.05;;;;;;;17.61;74.95;99767.25;5027350;28;20052;-81
2022/07/09 06:02:11;;;;;;;15.40;11.77;;;;;;;17.48;78.19;99772.34;5014740;28;20045;-81
2022/07/09 06:04:37;;;;;;;9.43;6.97;;;;;;;17.73;75.48;99781.28;5028095;28;20576;-81
2022/07/09 06:07:02;;;;;;;8.77;6.07;;;;;;;17.85;74.67;99770.19;5011885;28;20033;-81
2022/07/09 06:09:28;;;;;;;14.65;9.50;;;;;;;17.51;79.27;99769.97;5028962;28;20135;-81
2022/07/09 06:11:53;;;;;;;9.10;6.93;;;;;;;17.81;75.21;99774.50;5010330;28;20026;-81
2022/07/09 06:14:19;;;;;;;16.15;8.10;;;;;;;17.77;77.02;99765.34;5027338;28;20033;-81
2022/07/09 06:16:46;;;;;;;9.88;6.53;;;;;;;17.74;75.80;99764.00;5028619;28;20397;-81
2022/07/09 06:19:12;;;;;;;12.48;9.07;;;;;;;17.76;77.67;99767.22;5021338;28;20112;-80
2022/07/09 06:21:38;;;;;;;6.28;5.68;;;;;;;18.11;74.01;99766.34;5027292;28;20446;-80
2022/07/09 06:24:05;;;;;;;10.35;6.22;;;;;;;17.94;74.91;99760.44;5029874;28;20116;-81
2022/07/09 06:26:31;;;;;;;6.28;5.25;;;;;;;18.11;74.32;99766.34;5028344;28;20128;-81
2022/07/09 06:28:56;;;;;;;9.05;5.47;;;;;;;18.09;73.49;99760.41;5009756;28;20113;-81
2022/07/09 06:31:23;;;;;;;6.78;5.43;;;;;;;18.22;73.97;99770.63;5036281;28;20033;-81
2022/07/09 06:33:48;;;;;;;6.88;4.85;;;;;;;18.30;73.43;99766.56;5027373;28;20033;-80
2022/07/09 06:36:14;;;;;;;12.43;8.15;;;;;;;18.25;75.26;99766.56;5012780;28;20037;-80
2022/07/09 06:41:23;;;;;;;5.78;5.18;;;;;;;18.22;72.98;99740.91;5039613;28;20140;-81
2022/07/09 06:43:49;;;;;;;13.38;7.28;;;;;;;18.13;74.99;99763.38;4996215;28;20076;-80
2022/07/09 06:46:14;;;;;;;8.65;6.00;;;;;;;18.28;73.45;99761.41;5026742;28;20030;-80
2022/07/09 06:48:39;;;;;;;9.95;5.30;;;;;;;18.07;74.82;99765.25;5031424;28;20029;-80
2022/07/09 06:51:05;;;;;;;9.98;5.25;;;;;;;18.09;74.68;99760.41;5014259;28;20056;-80
2022/07/09 06:53:30;;;;;;;9.98;7.75;;;;;;;17.90;76.15;99754.78;5028227;28;20037;-80
2022/07/09 06:55:55;;;;;;;13.57;6.78;;;;;;;18.03;75.71;99772.31;5009341;28;20757;-80
2022/07/09 06:58:21;;;;;;;10.75;5.93;;;;;;;18.01;75.59;99754.75;5029631;28;20025;-80
2022/07/09 07:00:46;;;;;;;8.77;5.53;;;;;;;18.14;74.78;99778.50;5018541;28;20144;-80
2022/07/09 07:03:11;;;;;;;7.63;4.93;;;;;;;18.32;73.81;99783.31;5032962;28;20033;-80
2022/07/09 07:05:37;;;;;;;12.30;6.68;;;;;;;17.91;76.71;99775.28;5027652;28;20429;-81
2022/07/09 07:08:03;;;;;;;9.13;6.63;;;;;;;18.06;75.60;99789.88;5027983;28;20041;-80
2022/07/09 07:10:28;;;;;;;7.70;5.50;;;;;;;18.01;75.58;99787.16;5024089;28;20034;-80
2022/07/09 07:12:55;;;;;;;10.10;5.80;;;;;;;18.10;75.12;99788.22;5009057;28;20129;-80
2022/07/09 07:15:20;;;;;;;8.00;6.05;;;;;;;18.23;74.84;99793.88;5029815;28;20025;-80
2022/07/09 07:17:45;;;;;;;8.82;6.32;;;;;;;18.12;76.06;99791.47;5027096;28;20071;-81
2022/07/09 07:20:11;;;;;;;7.97;5.38;;;;;;;18.25;74.75;99785.47;5006448;28;20413;-81
2022/07/09 07:22:36;;;;;;;8.18;5.80;;;;;;;18.12;74.83;99761.75;5029750;28;20505;-80
2022/07/09 07:25:02;;;;;;;9.77;5.35;;;;;;;18.28;75.62;99784.94;5032047;28;20029;-81
2022/07/09 07:27:27;;;;;;;12.07;5.82;;;;;;;18.40;75.01;99771.91;5022564;28;20091;-80
2022/07/09 07:29:53;;;;;;;12.48;7.55;;;;;;;18.29;76.47;99773.84;5023122;28;20029;-81
2022/07/09 07:32:18;;;;;;;7.25;4.80;;;;;;;18.47;74.78;99765.16;4990852;28;20037;-81
2022/07/09 07:34:43;;;;;;;7.07;5.55;;;;;;;18.51;74.32;99773.50;5025832;28;20048;-81
2022/07/09 07:37:09;;;;;;;8.00;5.55;;;;;;;18.72;73.40;99782.34;5010932;28;20029;-81
2022/07/09 07:39:34;;;;;;;8.20;5.60;;;;;;;18.72;73.80;99780.44;5008325;28;20501;-80
2022/07/09 07:42:00;;;;;;;7.60;5.25;;;;;;;18.60;74.43;99785.38;5013441;28;20064;-80
2022/07/09 07:44:25;;;;;;;5.53;4.90;;;;;;;18.55;73.85;99777.28;5028679;28;20508;-80
2022/07/09 07:46:50;;;;;;;6.72;4.93;;;;;;;18.47;73.93;99770.56;5026813;28;20147;-80
2022/07/09 07:49:16;;;;;;;10.55;5.07;;;;;;;18.60;73.85;99779.97;5028196;28;20495;-80
2022/07/09 07:51:42;;;;;;;12.88;5.03;;;;;;;18.54;73.99;99781.09;5029243;28;20033;-80
2022/07/09 07:54:08;;;;;;;7.90;5.10;;;;;;;18.55;73.81;99769.97;5009071;28;20068;-80
2022/07/09 07:56:36;;;;;;;7.57;4.70;;;;;;;18.59;74.20;99772.94;5024332;28;20073;-80
2022/07/09 07:59:02;;;;;;;6.03;3.60;;;;;;;18.69;73.34;99767.50;5030359;28;20503;-81
2022/07/09 08:01:27;;;;;;;8.27;5.40;;;;;;;18.58;73.98;99785.66;5031511;28;20043;-81
2022/07/09 08:03:53;;;;;;;6.00;4.03;;;;;;;18.73;72.27;99763.13;5028731;28;20038;-80
2022/07/09 08:06:18;;;;;;;5.72;4.05;;;;;;;18.77;72.90;99769.59;5006461;28;20034;-80
2022/07/09 08:08:43;;;;;;;5.75;4.20;;;;;;;18.94;71.75;99764.63;5044736;28;20516;-80
2022/07/09 08:11:09;;;;;;;4.28;3.28;;;;;;;19.02;71.61;99764.03;5000077;28;20036;-80
2022/07/09 08:13:34;;;;;;;8.48;3.55;;;;;;;18.93;71.90;99756.78;5030421;28;20136;-80
2022/07/09 08:16:01;;;;;;;6.63;3.70;;;;;;;18.99;71.36;99734.81;5012093;28;20033;-80
2022/07/09 08:18:27;;;;;;;7.53;3.83;;;;;;;19.06;72.32;99754.28;5010444;28;20075;-81
2022/07/09 08:20:52;;;;;;;5.97;3.58;;;;;;;19.27;71.40;99742.19;5021252;28;20497;-81
2022/07/09 08:23:18;;;;;;;4.68;3.85;;;;;;;19.50;70.39;99754.22;5027444;28;20425;-81
2022/07/09 08:25:43;;;;;;;4.95;3.13;;;;;;;19.52;71.09;99749.31;5009783;28;20444;-81
2022/07/09 08:28:08;;;;;;;3.17;2.88;;;;;;;19.55;69.49;99750.66;5025369;28;20026;-81
2022/07/09 08:30:34;;;;;;;5.20;2.90;;;;;;;19.68;69.02;99755.41;5009326;28;20075;-81
2022/07/09 08:33:00;;;;;;;5.05;3.30;;;;;;;19.71;69.83;99754.81;5022795;28;20029;-81
2022/07/09 08:35:25;;;;;;;6.40;2.83;;;;;;;19.88;67.96;99749.78;5010121;28;20067;-81
2022/07/09 08:37:52;;;;;;;3.83;2.85;;;;;;;20.04;67.86;99751.22;5024683;28;20021;-81
2022/07/09 08:40:17;;;;;;;4.18;2.70;;;;;;;20.08;67.91;99757.69;5027624;28;20044;-81
2022/07/09 08:42:43;;;;;;;5.80;2.88;;;;;;;20.12;67.59;99764.13;5025563;28;20033;-81
2022/07/09 08:45:14;;;;;;;3.08;2.67;;;;;;;20.11;67.67;99757.13;5025765;28;20021;-81
2022/07/09 08:47:41;;;;;;;5.45;2.97;;;;;;;20.27;67.25;99755.06;5023868;28;20029;-81
2022/07/09 08:50:07;;;;;;;3.03;2.70;;;;;;;20.12;67.24;99745.16;5024901;28;20025;-81
2022/07/09 08:52:35;;;;;;;3.38;2.53;;;;;;;20.35;67.05;99762.56;5005100;28;20500;-81
2022/07/09 08:55:01;;;;;;;4.97;2.95;;;;;;;20.13;66.74;99752.22;5029971;28;20029;-80
2022/07/09 08:57:27;;;;;;;3.55;2.47;;;;;;;20.19;67.12;99754.56;5028907;28;20043;-80
2022/07/09 08:59:52;;;;;;;3.95;2.47;;;;;;;20.11;66.76;99757.13;5023886;28;20029;-80
2022/07/09 09:02:20;;;;;;;4.78;2.60;;;;;;;20.15;66.58;99742.72;5025887;28;20033;-80
2022/07/09 09:04:46;;;;;;;2.50;2.03;;;;;;;20.39;65.88;99736.47;5024976;28;20030;-80
2022/07/09 09:07:12;;;;;;;1.80;1.70;;;;;;;20.59;65.21;99742.44;5024567;28;20021;-80
2022/07/09 09:09:37;;;;;;;2.40;2.20;;;;;;;20.58;65.30;99732.69;5027672;28;20037;-80
2022/07/09 09:12:03;;;;;;;2.65;2.28;;;;;;;20.48;65.64;99730.13;5026764;28;20382;-80
2022/07/09 09:14:29;;;;;;;7.85;2.75;;;;;;;20.66;65.93;99742.88;5023830;28;20033;-80
2022/07/09 09:17:03;;;;;;;2.47;2.28;;;;;;;20.63;65.56;99739.94;5026753;28;20124;-81
2022/07/09 09:19:29;;;;;;;3.97;2.47;;;;;;;20.65;65.26;99745.88;5021815;28;20056;-80
2022/07/09 09:21:54;;;;;;;4.18;2.25;;;;;;;20.66;64.94;99731.25;5030653;28;20069;-80
2022/07/09 09:24:25;;;;;;;5.45;2.58;;;;;;;20.75;63.74;99740.34;5006479;28;20029;-81
2022/07/09 09:26:50;;;;;;;4.80;2.22;;;;;;;21.01;63.87;99738.06;5024398;28;20064;-81
2022/07/09 09:29:16;;;;;;;2.50;2.10;;;;;;;21.08;63.82;99728.44;5022467;28;20041;-81
2022/07/09 09:31:44;;;;;;;5.72;1.88;;;;;;;21.13;63.49;99722.94;5027990;28;20056;-81
2022/07/09 09:34:14;;;;;;;2.15;1.95;;;;;;;21.30;63.75;99730.53;5022447;28;20110;-81
2022/07/09 09:36:41;;;;;;;2.78;2.30;;;;;;;21.38;62.86;99738.81;5024151;28;20033;-81
2022/07/09 09:39:27;;;;;;;2.58;2.10;;;;;;;21.30;62.87;99720.47;5025799;28;20079;-81
2022/07/09 09:41:59;;;;;;;3.53;2.22;;;;;;;21.50;62.32;99732.91;5025799;28;20490;-81
2022/07/09 09:44:28;;;;;;;2.25;2.05;;;;;;;21.42;62.41;99717.31;5026737;28;20037;-81
2022/07/09 09:46:54;;;;;;;2.17;1.92;;;;;;;21.46;62.58;99719.13;5011058;28;20037;-81
2022/07/09 09:49:19;;;;;;;4.72;2.55;;;;;;;21.31;62.88;99705.00;5026615;28;20120;-81
2022/07/09 09:52:05;;;;;;;2.88;1.75;;;;;;;21.44;62.72;99696.91;5026050;28;20540;-81
2022/07/09 09:54:35;;;;;;;3.03;1.70;;;;;;;21.53;62.25;99688.84;5012777;28;20045;-80
2022/07/09 09:57:05;;;;;;;2.55;2.00;;;;;;;21.44;62.36;99706.94;5032129;28;20035;-81
2022/07/09 09:59:33;;;;;;;2.20;1.98;;;;;;;21.53;62.04;99719.56;5016203;28;20025;-82
2022/07/09 10:02:00;;;;;;;2.28;1.90;;;;;;;21.41;62.46;99713.78;5027516;28;20113;-81
2022/07/09 10:04:25;;;;;;;4.68;2.25;;;;;;;21.48;62.03;99724.25;5011766;28;20735;-81
2022/07/09 10:06:53;;;;;;;2.90;1.77;;;;;;;21.39;62.48;99717.88;5019903;28;20037;-81
2022/07/09 10:09:19;;;;;;;4.38;1.92;;;;;;;21.58;61.71;99714.00;5020147;28;20017;-80
2022/07/09 10:11:47;;;;;;;4.60;1.90;;;;;;;21.39;62.27;99716.00;5029618;28;20037;-81
2022/07/09 10:14:24;;;;;;;2.88;1.80;;;;;;;21.65;61.52;99708.19;5040062;28;20120;-81
2022/07/09 10:16:53;;;;;;;2.42;1.50;;;;;;;21.47;61.87;99706.38;5024816;28;20032;-81
2022/07/09 10:19:26;;;;;;;1.92;1.52;;;;;;;21.47;61.94;99715.28;5026493;28;20029;-81
2022/07/09 10:21:57;;;;;;;4.32;2.10;;;;;;;21.35;62.74;99703.31;5011952;28;20473;-81
2022/07/09 10:24:33;;;;;;;3.22;2.10;;;;;;;21.17;62.55;99694.09;5034147;28;20059;-81
2022/07/09 10:27:09;;;;;;;;;;;;;;;21.23;62.51;99698.31;5038391;28;20037;-81
2022/07/09 10:29:36;;;;;;;2.20;1.90;;;;;;;21.20;62.13;99676.41;5034829;28;19917;-81
2022/07/09 10:32:02;;;;;;;1.95;1.85;;;;;;;21.09;62.43;99699.41;5036147;28;20021;-81
2022/07/09 10:34:34;;;;;;;2.95;2.00;;;;;;;21.10;62.61;99706.44;5028594;28;20230;-81
2022/07/09 10:37:02;;;;;;;2.67;1.73;;;;;;;21.06;63.45;99703.50;5028943;28;20029;-81
2022/07/09 10:39:29;;;;;;;2.40;1.50;;;;;;;21.30;62.25;99698.75;5032078;28;20037;-81
2022/07/09 10:42:07;;;;;;;2.78;1.73;;;;;;;20.83;63.44;99679.97;5025624;28;20056;-81
2022/07/09 10:44:40;;;;;;;6.28;1.98;;;;;;;21.17;62.95;99696.00;5014459;28;20040;-81
2022/07/09 10:47:06;;;;;;;2.75;1.92;;;;;;;20.97;62.67;99682.75;5030203;28;20401;-81
2022/07/09 10:49:36;;;;;;;2.95;1.70;;;;;;;20.96;62.85;99698.22;5030981;28;20028;-81
2022/07/09 10:52:03;;;;;;;2.97;1.48;;;;;;;20.79;62.72;99687.88;5031008;28;20025;-81
2022/07/09 10:54:28;;;;;;;1.80;1.70;;;;;;;20.57;62.90;99684.97;5033324;28;20507;-81
2022/07/09 10:56:54;;;;;;;1.92;1.83;;;;;;;20.67;62.86;99695.66;5014899;28;20029;-81
2022/07/09 10:59:21;;;;;;;1.80;1.42;;;;;;;20.55;62.75;99681.72;5047622;28;20436;-81
2022/07/09 11:01:47;;;;;;;2.03;1.80;;;;;;;20.71;62.45;99685.03;5014149;28;20393;-81
2022/07/09 11:04:23;;;;;;;3.28;1.73;;;;;;;20.61;62.94;99680.56;5027994;28;20021;-82
2022/07/09 11:06:49;;;;;;;1.92;1.75;;;;;;;20.62;62.52;99675.97;5028275;28;20111;-81
2022/07/09 11:09:15;;;;;;;4.07;1.67;;;;;;;20.74;63.06;99687.97;5013302;28;20029;-81
2022/07/09 11:11:44;;;;;;;2.67;1.80;;;;;;;20.83;62.37;99672.63;5033624;28;20021;-81
2022/07/09 11:14:11;;;;;;;2.55;2.13;;;;;;;20.67;62.27;99652.25;5028306;28;20061;-81
2022/07/09 11:16:36;;;;;;;3.63;1.83;;;;;;;20.93;62.40;99667.03;5026917;28;20036;-81
2022/07/09 11:19:15;;;;;;;1.85;1.75;;;;;;;21.04;63.66;99656.84;5021243;28;20037;-81
2022/07/09 11:21:41;;;;;;;2.92;2.13;;;;;;;21.04;62.39;99673.13;5023625;28;20068;-81
2022/07/09 11:24:19;;;;;;;1.73;1.63;;;;;;;21.16;62.79;99659.91;5030169;28;20068;-81
2022/07/09 11:26:46;;;;;;;3.40;1.63;;;;;;;21.27;61.95;99671.41;5028111;28;20034;-81
2022/07/09 11:29:12;;;;;;;2.25;1.38;;;;;;;20.97;62.80;99666.47;5028501;28;20029;-81